createdAt,value
2019-02-21T00:01:59.168Z,27.58
2019-02-21T00:04:27.824Z,26.97
2019-02-21T00:06:56.869Z,26.65
2019-02-21T00:09:26.041Z,28.20
2019-02-21T00:11:55.231Z,26.48
2019-02-21T00:14:25.170Z,28.67
2019-02-21T00:16:54.010Z,29.30
2019-02-21T00:19:22.956Z,27.45
2019-02-21T00:22:17.027Z,26.70
2019-02-21T00:24:45.619Z,27.10
2019-02-21T00:27:14.015Z,26.10
2019-02-21T00:29:42.687Z,28.57
2019-02-21T00:32:11.066Z,29.67
2019-02-21T00:34:39.603Z,29.40
2019-02-21T00:37:08.031Z,29.92
2019-02-21T00:39:36.603Z,27.87
2019-02-21T00:42:05.341Z,27.10
2019-02-21T00:44:34.165Z,26.60
2019-02-21T00:47:02.215Z,27.25
2019-02-21T00:49:30.267Z,27.32
2019-02-21T00:51:59.193Z,27.65
2019-02-21T00:54:27.853Z,25.43
2019-02-21T00:56:55.863Z,24.95
2019-02-21T00:59:25.580Z,27.67
2019-02-21T01:01:55.126Z,26.42
2019-02-21T01:04:23.145Z,26.05
2019-02-21T01:06:51.156Z,26.10
2019-02-21T01:09:19.463Z,24.98
2019-02-21T01:11:47.608Z,24.82
2019-02-21T01:14:15.814Z,24.98
2019-02-21T01:16:43.867Z,25.35
2019-02-21T01:19:12.047Z,22.95
2019-02-21T01:21:40.023Z,25.32
2019-02-21T01:24:08.080Z,25.02
2019-02-21T01:26:36.371Z,25.75
2019-02-21T01:29:05.556Z,27.45
2019-02-21T01:31:33.655Z,26.02
2019-02-21T01:34:01.699Z,24.82
2019-02-21T01:36:29.782Z,25.43
2019-02-21T01:38:57.926Z,25.68
2019-02-21T01:41:26.008Z,25.90
2019-02-21T01:43:54.286Z,24.55
2019-02-21T01:46:22.539Z,25.90
2019-02-21T01:48:50.741Z,24.90
2019-02-21T01:51:19.034Z,25.95
2019-02-21T01:53:47.104Z,25.52
2019-02-21T01:56:15.335Z,26.15
2019-02-21T01:58:43.289Z,27.52
2019-02-21T02:01:11.416Z,26.40
2019-02-21T02:03:39.654Z,27.45
2019-02-21T02:06:07.860Z,26.48
2019-02-21T02:08:36.355Z,26.45
2019-02-21T02:11:04.535Z,26.73
2019-02-21T02:13:32.568Z,26.40
2019-02-21T02:16:00.687Z,24.67
2019-02-21T02:18:28.647Z,26.15
2019-02-21T02:20:56.863Z,24.18
2019-02-21T02:23:24.963Z,24.90
2019-02-21T02:25:53.013Z,24.95
2019-02-21T02:28:21.245Z,25.43
2019-02-21T02:30:49.480Z,24.27
2019-02-21T02:33:19.456Z,25.32
2019-02-21T02:35:47.476Z,23.60
2019-02-21T02:38:16.411Z,25.10
2019-02-21T02:40:44.556Z,25.65
2019-02-21T02:43:12.618Z,24.82
2019-02-21T02:45:41.290Z,25.12
2019-02-21T02:48:10.894Z,26.20
2019-02-21T02:50:39.067Z,24.65
2019-02-21T02:53:07.231Z,26.87
2019-02-21T03:52:10.709Z,33.05
2019-02-21T03:54:39.894Z,33.88
2019-02-21T03:57:08.121Z,35.13
2019-02-21T03:59:37.737Z,33.78
2019-02-21T04:02:05.921Z,33.18
2019-02-21T04:04:34.499Z,35.38
2019-02-21T04:07:02.741Z,35.15
2019-02-21T04:09:30.874Z,35.75
2019-02-21T04:11:59.292Z,32.83
2019-02-21T04:14:27.431Z,34.58
2019-02-21T04:16:56.635Z,36.25
2019-02-21T04:19:24.791Z,33.53
2019-02-21T04:21:53.523Z,33.75
2019-02-21T04:24:21.866Z,31.30
2019-02-21T04:26:50.074Z,33.63
2019-02-21T04:29:18.217Z,32.75
2019-02-21T04:31:46.325Z,33.00
2019-02-21T04:34:14.161Z,34.23
2019-02-21T04:36:42.244Z,32.35
2019-02-21T04:39:10.298Z,34.58
2019-02-21T04:41:38.491Z,32.23
2019-02-21T04:44:08.079Z,32.58
2019-02-21T04:46:36.401Z,33.13
2019-02-21T04:49:06.150Z,33.90
2019-02-21T04:51:34.383Z,33.08
2019-02-21T04:54:02.659Z,32.70
2019-02-21T04:56:31.078Z,34.35
2019-02-21T04:58:59.805Z,34.20
2019-02-21T05:01:27.883Z,34.05
2019-02-21T05:03:56.060Z,35.08
2019-02-21T05:06:24.328Z,34.10
2019-02-21T05:08:52.379Z,33.98
2019-02-21T05:11:20.661Z,37.20
2019-02-21T05:13:48.497Z,36.33
2019-02-21T05:16:16.768Z,34.83
2019-02-21T05:18:44.991Z,35.28
2019-02-21T05:21:14.657Z,38.83
2019-02-21T05:23:42.862Z,38.35
2019-02-21T05:26:13.295Z,37.90
2019-02-21T05:28:41.974Z,38.00
2019-02-21T05:31:19.776Z,39.15
2019-02-21T05:34:01.157Z,40.52
2019-02-21T05:36:57.676Z,37.25
2019-02-21T05:40:02.972Z,35.17
2019-02-21T05:42:50.020Z,36.55
2019-02-21T05:45:43.085Z,35.95
2019-02-21T05:48:21.597Z,35.78
2019-02-21T05:51:10.703Z,35.68
2019-02-21T05:54:12.608Z,36.98
2019-02-21T05:57:00.455Z,34.83
2019-02-21T06:10:23.627Z,34.63
2019-02-21T06:13:15.050Z,34.58
2019-02-21T07:09:11.714Z,34.20
2019-02-21T07:11:39.952Z,31.40
2019-02-21T07:14:08.176Z,31.12
2019-02-21T07:16:37.343Z,29.32
2019-02-21T07:19:05.945Z,29.05
2019-02-21T07:21:36.500Z,34.27
2019-02-21T07:24:03.999Z,31.48
2019-02-21T07:26:32.315Z,29.80
2019-02-21T07:29:00.554Z,29.75
2019-02-21T07:31:29.644Z,28.75
2019-02-21T07:34:01.374Z,30.43
2019-02-21T07:36:28.741Z,29.23
2019-02-21T07:39:13.642Z,30.23
2019-02-21T07:41:26.877Z,27.50
2019-02-21T07:43:55.059Z,30.57
2019-02-21T07:46:24.895Z,33.85
2019-02-21T08:43:22.036Z,27.00
2019-02-21T08:45:50.169Z,24.07
2019-02-21T08:48:18.299Z,25.75
2019-02-21T08:50:46.244Z,26.27
2019-02-21T08:53:14.350Z,21.02
2019-02-21T08:55:42.192Z,24.63
2019-02-21T08:58:10.388Z,24.10
2019-02-21T09:00:38.439Z,24.27
2019-02-21T09:03:06.623Z,18.90
2019-02-21T09:05:34.825Z,24.72
2019-02-21T09:08:03.376Z,24.92
2019-02-21T09:10:31.284Z,23.67
2019-02-21T09:12:59.299Z,25.48
2019-02-21T09:15:29.199Z,25.48
2019-02-21T09:20:25.210Z,25.90
2019-02-21T09:22:53.114Z,23.25
2019-02-21T09:25:21.294Z,21.82
2019-02-21T09:27:49.494Z,24.95
2019-02-21T09:30:17.841Z,24.10
2019-02-21T09:32:46.884Z,24.15
2019-02-21T09:35:15.122Z,23.15
2019-02-21T09:37:43.210Z,23.45
2019-02-21T09:40:12.313Z,22.22
2019-02-21T09:42:40.686Z,22.42
2019-02-21T09:45:10.965Z,21.75
2019-02-21T09:47:38.885Z,23.45
2019-02-21T09:50:08.548Z,22.87
2019-02-21T09:52:36.635Z,23.32
2019-02-21T09:55:06.076Z,21.80
2019-02-21T09:57:34.187Z,24.35
2019-02-21T10:00:02.312Z,21.65
2019-02-21T10:02:30.232Z,22.85
2019-02-21T10:05:05.077Z,20.82
2019-02-21T10:07:28.344Z,22.93
2019-02-21T10:09:56.641Z,23.50
2019-02-21T10:12:26.719Z,22.20
2019-02-21T10:14:57.678Z,23.35
2019-02-21T10:17:26.703Z,22.58
2019-02-21T10:19:54.499Z,22.58
2019-02-21T10:22:22.633Z,21.55
2019-02-21T10:24:50.809Z,22.58
2019-02-21T10:27:19.099Z,23.22
2019-02-21T10:29:47.136Z,22.60
2019-02-21T10:32:15.354Z,22.32
2019-02-21T10:34:43.658Z,23.40
2019-02-21T10:37:11.934Z,23.12
2019-02-21T10:39:40.263Z,16.70
2019-02-21T10:42:10.092Z,18.17
2019-02-21T10:44:38.387Z,20.15
2019-02-21T10:47:06.669Z,17.12
2019-02-21T10:49:34.949Z,18.35
2019-02-21T10:52:03.164Z,13.85
2019-02-21T10:54:31.422Z,14.70
2019-02-21T10:56:59.800Z,16.10
2019-02-21T10:59:27.882Z,15.10
2019-02-21T11:01:56.075Z,17.70
2019-02-21T11:04:24.404Z,14.90
2019-02-21T11:06:52.520Z,15.78
2019-02-21T11:09:21.915Z,16.65
2019-02-21T11:11:50.157Z,13.98
2019-02-21T11:14:18.347Z,13.50
2019-02-21T11:16:46.515Z,15.23
2019-02-21T11:19:14.728Z,14.45
2019-02-21T11:21:42.940Z,15.40
2019-02-21T11:24:11.127Z,14.40
2019-02-21T11:26:39.379Z,14.60
2019-02-21T11:29:07.561Z,14.33
2019-02-21T11:31:35.874Z,15.53
2019-02-21T11:34:04.044Z,14.20
2019-02-21T11:36:32.119Z,15.70
2019-02-21T11:39:00.371Z,14.53
2019-02-21T11:41:28.631Z,14.50
2019-02-21T11:43:56.861Z,17.13
2019-02-21T11:46:25.292Z,15.60
2019-02-21T11:48:53.416Z,12.93
2019-02-21T11:51:21.803Z,15.08
2019-02-21T11:53:49.955Z,14.07
2019-02-21T11:56:18.009Z,13.50
2019-02-21T11:58:46.105Z,14.60
2019-02-21T12:01:14.245Z,13.60
2019-02-21T12:03:42.543Z,16.57
2019-02-21T12:06:10.677Z,14.33
2019-02-21T12:08:40.864Z,15.00
2019-02-21T12:11:09.107Z,15.32
2019-02-21T12:13:37.348Z,13.03
2019-02-21T12:16:05.671Z,16.27
2019-02-21T12:18:33.801Z,14.47
2019-02-21T12:21:01.979Z,15.03
2019-02-21T12:23:30.193Z,13.45
2019-02-21T12:25:58.320Z,13.32
2019-02-21T12:28:26.243Z,12.25
2019-02-21T12:30:54.469Z,13.55
2019-02-21T12:33:22.567Z,13.95
2019-02-21T12:35:50.604Z,12.60
2019-02-21T12:38:18.903Z,13.27
2019-02-21T12:40:47.004Z,12.50
2019-02-21T12:43:15.246Z,13.40
2019-02-21T12:45:43.525Z,12.20
2019-02-21T12:48:11.375Z,12.80
2019-02-21T12:50:44.331Z,12.07
2019-02-21T12:53:09.374Z,14.03
2019-02-21T12:55:37.659Z,12.30
2019-02-21T12:58:05.715Z,12.30
2019-02-21T13:00:33.707Z,14.87
2019-02-21T13:03:01.853Z,13.43
2019-02-21T13:05:40.343Z,12.83
2019-02-21T13:08:01.032Z,14.30
2019-02-21T13:10:29.253Z,13.73
2019-02-21T13:12:57.344Z,13.50
2019-02-21T13:15:25.483Z,15.30
2019-02-21T13:17:53.788Z,14.23
2019-02-21T13:20:21.939Z,14.27
2019-02-21T13:22:50.039Z,15.63
2019-02-21T13:25:19.871Z,15.30
2019-02-21T13:27:49.688Z,14.95
2019-02-21T13:30:18.236Z,15.10
2019-02-21T13:32:46.201Z,15.48
2019-02-21T13:35:14.412Z,15.78
2019-02-21T13:37:42.660Z,15.23
2019-02-21T13:40:11.941Z,14.10
2019-02-21T13:42:39.890Z,15.20
2019-02-21T13:45:08.405Z,14.25
2019-02-21T13:47:39.139Z,14.40
2019-02-21T13:50:09.285Z,14.83
2019-02-21T13:52:37.535Z,14.68
2019-02-21T13:55:05.814Z,14.15
2019-02-21T13:57:33.944Z,14.10
2019-02-21T14:00:01.944Z,14.13
2019-02-21T14:02:29.993Z,14.23
2019-02-21T14:04:58.883Z,13.60
2019-02-21T14:07:27.091Z,13.60
2019-02-21T14:09:57.935Z,14.00
2019-02-21T14:12:26.636Z,14.03
2019-02-21T14:14:54.952Z,14.97
2019-02-21T14:17:23.152Z,14.97
2019-02-21T14:19:53.205Z,14.13
2019-02-21T14:22:21.371Z,15.40
2019-02-21T14:24:49.597Z,13.93
2019-02-21T14:27:26.343Z,15.10
2019-02-21T14:29:54.335Z,14.30
2019-02-21T14:32:22.505Z,13.83
2019-02-21T14:34:50.728Z,15.57
2019-02-21T14:37:19.879Z,14.70
2019-02-21T14:39:49.712Z,14.80
2019-02-21T14:42:20.124Z,14.07
2019-02-21T14:44:49.568Z,14.10
2019-02-21T14:47:28.766Z,15.07
2019-02-21T14:50:11.847Z,13.80
2019-02-21T14:52:43.706Z,13.00
2019-02-21T14:55:17.646Z,13.77
2019-02-21T14:57:47.441Z,12.63
2019-02-21T15:00:17.883Z,14.37
2019-02-21T15:03:03.685Z,14.40
2019-02-21T15:05:30.869Z,14.17
2019-02-21T15:07:58.923Z,13.70
2019-02-21T15:10:26.966Z,13.80
2019-02-21T15:12:56.859Z,13.07
2019-02-21T15:15:24.943Z,14.90
2019-02-21T15:17:53.065Z,13.50
2019-02-21T15:20:21.088Z,13.23
2019-02-21T15:22:49.081Z,15.00
2019-02-21T15:25:17.439Z,13.83
2019-02-21T15:27:45.766Z,12.67
2019-02-21T15:30:15.829Z,15.28
2019-02-21T15:32:56.902Z,14.33
2019-02-21T15:35:25.924Z,14.35
2019-02-21T15:37:53.887Z,14.45
2019-02-21T15:40:22.073Z,15.20
2019-02-21T15:42:52.621Z,15.70
2019-02-21T15:45:23.459Z,15.28
2019-02-21T15:47:50.512Z,13.45
2019-02-21T15:50:19.906Z,14.90
2019-02-21T15:52:49.812Z,14.55
2019-02-21T15:55:17.759Z,14.43
2019-02-21T15:57:45.739Z,13.15
2019-02-21T16:00:15.623Z,14.70
2019-02-21T16:02:43.812Z,15.18
2019-02-21T16:05:12.068Z,15.93
2019-02-21T16:07:40.276Z,14.98
2019-02-21T16:10:10.771Z,13.95
2019-02-21T16:12:39.091Z,16.20
2019-02-21T16:15:08.405Z,15.78
2019-02-21T16:17:37.089Z,13.58
2019-02-21T16:20:07.224Z,15.60
2019-02-21T16:22:43.161Z,15.95
2019-02-21T16:25:16.031Z,16.30
2019-02-21T16:27:44.657Z,16.95
2019-02-21T16:30:13.352Z,16.60
2019-02-21T16:32:41.585Z,16.67
2019-02-21T16:35:11.979Z,14.07
2019-02-21T16:37:51.391Z,14.28
2019-02-21T16:40:21.142Z,14.58
2019-02-21T16:42:49.889Z,13.08
2019-02-21T16:45:17.978Z,13.50
2019-02-21T16:47:45.988Z,10.78
2019-02-21T16:50:14.363Z,13.13
2019-02-21T16:52:42.994Z,10.38
2019-02-21T16:55:28.650Z,15.45
2019-02-21T16:58:00.571Z,14.80
2019-02-21T17:00:42.422Z,16.50
2019-02-21T17:03:01.419Z,15.32
2019-02-21T17:05:29.699Z,15.40
2019-02-21T17:07:58.594Z,16.25
2019-02-21T17:10:30.380Z,16.32
2019-02-21T17:12:59.485Z,17.80
2019-02-21T17:15:27.409Z,16.85
2019-02-21T17:17:55.769Z,18.45
2019-02-21T17:20:24.178Z,19.23
2019-02-21T17:22:52.133Z,17.80
2019-02-21T17:25:20.428Z,18.92
2019-02-21T17:27:48.852Z,17.92
2019-02-21T17:30:19.123Z,17.73
2019-02-21T17:32:47.698Z,18.60
2019-02-21T17:35:50.409Z,17.25
2019-02-21T17:38:40.897Z,17.32
2019-02-21T17:41:35.333Z,18.95
2019-02-21T17:44:36.003Z,20.10
2019-02-21T17:47:32.754Z,20.57
2019-02-21T17:50:24.544Z,24.30
2019-02-21T17:53:22.464Z,21.00
2019-02-21T17:56:15.253Z,21.33
2019-02-21T17:59:14.277Z,19.37
2019-02-21T18:02:10.867Z,21.20
2019-02-21T18:05:06.358Z,20.25
2019-02-21T18:08:14.992Z,20.95
2019-02-21T18:11:12.489Z,19.05
2019-02-21T18:14:18.729Z,19.35
2019-02-21T18:17:13.378Z,21.27
2019-02-21T18:20:05.706Z,19.30
2019-02-21T18:22:53.261Z,20.80
2019-02-21T18:25:52.054Z,22.10
2019-02-21T18:28:45.455Z,20.65
2019-02-21T18:31:43.961Z,20.17
2019-02-21T18:37:29.739Z,23.50
2019-02-21T18:40:17.267Z,20.82
